Patterson Creek, West Virginia
Current Conditions -  °F | °C
As of 1:09 PM on Tuesday 21 Oct 2014 (Local Time) from KCBE Reporting Station
Broken Clouds Broken Clouds  
Wind Chill: 59°   Ceiling: 7500
Heat Index: 59°   Visibility: 10mi
Dew Point: 46°   Wind: 7mph
Humidity: 63%   Direction: 330°NNW
Pressure: 29.89"   Gusts: NA
Location:  39.5435°N, 78.8115°W
Report Text: KCBE 211709Z AUTO 33006KT 10SM BKN075 15/08 A2989 RMK AO1
Loading
Personal Weather Stations






























Interactive Weather Map
Tropical Storm Tracking
New forecast layout! Learn more

10-Day Weather Forecast

Advertisements
Track Severe Weather on mobile